• Join FlightAware (Why Join?)
  • Login
  • US Flag 
10:10AM EDT


 

Airport Tracker/Info


-or-


 

Live Flight TrackerFlight Track Log ✈ DAL6044 ✈ 25-Jun-2013 ✈ KLGA - KCLE

Flight Track Log - Related Links

Times and Time Zones

All times are in EDT time to prevent confusion due to time zone crossing. See the DAL6044 flight status page for this flight to view local times or setup timezone preferences in your user account.

Time Position Orientation Groundspeed Altitude Reporting Facility
EDT Latitude Longitude Course Direction KTS MPH feet Rate Location/Type
06:02PM 40.8000 -73.9000 270° West 184 212 1,200  Level New York TRACON
06:03PM 40.8500 -73.9333 333° Northwest 214 246 3,100 2,160 Climbing New York TRACON
06:04PM 40.9000 -73.9667 333° Northwest 232 267 5,600 2,460 Climbing New York TRACON
06:05PM 40.9500 -74.0333 315° West 250 288 8,100 2,280 Climbing New York TRACON
06:06PM 40.7834 -74.4348 270° West  Level FlightAware Approximate
06:06PM 40.9333 -74.1167 255° West 250 288 10,200  Level New York TRACON
06:07PM 40.7834 -74.5780 270° West  Level FlightAware Approximate
06:07PM 40.9167 -74.2167 258° West 274 315 11,800  Level New York TRACON
06:08PM 40.9000 -74.3333 259° West 300 345 13,300 1,440 Climbing New York TRACON
06:09PM 40.8833 -74.4333 258° West 310 357 14,700 1,320 Climbing New York TRACON
06:11PM 40.8672 -74.6344 264° West 328 377 17,000 780 Climbing New York Center
06:12PM 40.8531 -74.7436 260° West 338 389 17,000  Level New York Center
06:13PM 40.8358 -74.8825 261° West 376 433 17,000  Level New York Center
06:14PM 40.8164 -75.0211 260° West 387 445 17,000 720 Level New York Center
06:15PM 40.7983 -75.1706 261° West 387 445 18,500 1,440 Climbing New York Center
06:16PM 40.7767 -75.3036 258° West 381 438 19,900 1,320 Climbing New York Center
06:17PM 40.7489 -75.4278 254° West 365 420 21,200 1,080 Climbing New York Center
06:18PM 40.7092 -75.5372 244° Southwest 365 420 22,100 900 Climbing New York Center
06:19PM 40.6644 -75.6600 244° Southwest 372 428 23,100 900 Climbing New York Center
06:20PM 40.6178 -75.7825 243° Southwest 377 434 24,000 1,020 Climbing New York Center
06:21PM 40.5619 -75.9178 242° Southwest 382 440 25,200 960 Climbing New York Center
06:22PM 40.5147 -76.0453 244° Southwest 382 440 26,000 360 Climbing New York Center
06:23PM 40.4650 -76.1725 243° Southwest 393 452 26,000  Level New York Center
06:24PM 40.4128 -76.3100 244° Southwest 406 467 26,000  Level New York Center
06:25PM 40.3703 -76.4183 243° Southwest 421 484 26,000  Level New York Center
06:26PM 40.3108 -76.5689 243° Southwest 426 490 26,000  Level New York Center
06:27PM 40.2536 -76.7136 243° Southwest 437 503 26,000  Level New York Center
06:28PM 40.2128 -76.8625 250° West 443 510 26,000  Level New York Center
06:29PM 40.1797 -77.0144 254° West 443 510 26,000  Level New York Center
06:30PM 40.1444 -77.1686 253° West 443 510 26,000  Level New York Center
06:31PM 40.1358 -77.3256 266° West 443 510 26,000  Level New York Center
06:33PM 40.1325 -77.6883 269° West 427 491 26,000  Level Cleveland Center
06:34PM 40.1281 -77.8458 268° West 437 503 26,000  Level Cleveland Center
06:35PM 40.1214 -78.0092 267° West 446 513 26,000  Level Cleveland Center
06:36PM 40.1167 -78.1669 268° West 446 513 26,000  Level Cleveland Center
06:37PM 40.1136 -78.3244 269° West 446 513 26,000  Level Cleveland Center
06:38PM 40.1083 -78.4819 268° West 446 513 26,000  Level Cleveland Center
06:39PM 40.1069 -78.6394 269° West 441 507 26,000  Level Cleveland Center
06:40PM 40.1011 -78.7972 267° West 441 507 26,000  Level Cleveland Center
06:41PM 40.0972 -78.9547 268° West 441 507 26,000  Level Cleveland Center
06:42PM 40.0911 -79.1150 267° West 441 507 26,000  Level Cleveland Center
06:43PM 40.0867 -79.2725 268° West 441 507 26,000  Level Cleveland Center
06:44PM 40.0800 -79.4300 267° West 441 507 26,000  Level Cleveland Center
06:45PM 40.0733 -79.5900 267° West 441 507 26,000  Level Cleveland Center
06:46PM 40.0600 -79.7450 264° West 441 507 26,000  Level Cleveland Center
06:47PM 40.0192 -79.8944 250° West 441 507 26,000  Level Cleveland Center
06:48PM 39.9764 -80.0439 250° West 441 507 26,000  Level Cleveland Center
06:49PM 39.9353 -80.1933 250° West 446 513 26,000  Level Cleveland Center
06:50PM 39.8939 -80.3422 250° West 446 513 26,000  Level Cleveland Center
06:51PM 39.8503 -80.4964 250° West 451 519 26,000  Level Cleveland Center
06:52PM 39.8128 -80.6506 252° West 451 519 26,000  Level Cleveland Center
06:53PM 39.7814 -80.8044 255° West 446 513 26,000  Level Cleveland Center
06:54PM 39.7747 -80.9667 267° West 441 507 26,000  Level Cleveland Center
06:55PM 39.8303 -81.1131 296° West 441 507 26,000  Level Cleveland Center
06:56PM 39.9342 -81.1867 331° Northwest 399 459 26,000 -720 Level Cleveland Center
06:57PM 40.0422 -81.2419 339° North 400 460 24,600 -1,500 Descending Cleveland Center
06:58PM 40.1586 -81.2947 341° North 400 460 23,100 -1,560 Descending Cleveland Center
06:59PM 40.2647 -81.3422 341° North 400 460 21,500 -1,500 Descending Cleveland Center
07:00PM 40.3603 -81.3842 342° North 381 438 20,100 -780 Descending Cleveland Center
07:01PM 40.4517 -81.4344 337° Northwest 359 413 20,000 -660 Descending Cleveland Center
07:02PM 40.5411 -81.4739 341° North 341 392 18,800 -1,500 Descending Cleveland Center
07:03PM 40.6200 -81.5078 342° North 322 371 17,000 -1,740 Descending Cleveland Center
07:04PM 40.6697 -81.5386 335° Northwest 293 337 15,900 -1,680 Descending Cleveland Center
07:05PM 40.7717 -81.5811 342° North 302 348 13,700 -1,800 Descending Cleveland Center
07:06PM 40.8506 -81.6181 340° North 302 348 11,800 -1,860 Descending Cleveland Center
07:07PM 40.9272 -81.6550 340° North 302 348 10,000 -900 Descending Cleveland Center
07:08PM 41.0039 -81.6892 341° North 296 341 10,100  Climbing Cleveland Center
07:09PM 41.0828 -81.7236 342° North 296 341 10,000 -60 Descending Cleveland Center
07:10PM 41.1681 -81.7608 342° North 296 341 10,000 -900 Level Cleveland Center
07:11PM 41.2406 -81.7897 343° North 281 323 8,300 -900 Descending Cleveland Center
07:12PM 41.3203 -81.7608 15° North 297 342 8,100 -600 Descending Cleveland Center
07:13PM 41.3750 -81.7067 37° Northeast 267 307 7,200 -1,500 Descending Cleveland Center
07:15PM 41.4528 -81.6303 36° Northeast 282 325 5,000 -1,620 Descending Cleveland Center
07:16PM 41.5086 -81.6700 332° Northwest 219 252 3,500 -1,500 Descending Cleveland Center